sensor_id;sensor_type;location;lat;lon;timestamp;P1;durP1;ratioP1;P2;durP2;ratioP2
54171;SDS011;40076;52.354;4.970;2022-10-31T00:00:22;9.00;;;4.10;;
54171;SDS011;40076;52.354;4.970;2022-10-31T00:02:48;6.55;;;4.03;;
54171;SDS011;40076;52.354;4.970;2022-10-31T00:05:13;7.93;;;3.90;;
54171;SDS011;40076;52.354;4.970;2022-10-31T00:07:38;11.15;;;4.72;;
54171;SDS011;40076;52.354;4.970;2022-10-31T00:10:07;8.88;;;4.72;;
54171;SDS011;40076;52.354;4.970;2022-10-31T00:12:33;11.73;;;4.75;;
54171;SDS011;40076;52.354;4.970;2022-10-31T00:14:58;10.15;;;4.50;;
54171;SDS011;40076;52.354;4.970;2022-10-31T00:17:23;10.13;;;4.15;;
54171;SDS011;40076;52.354;4.970;2022-10-31T00:19:49;10.38;;;4.45;;
54171;SDS011;40076;52.354;4.970;2022-10-31T00:22:14;7.45;;;4.20;;
54171;SDS011;40076;52.354;4.970;2022-10-31T00:24:39;8.27;;;4.03;;
54171;SDS011;40076;52.354;4.970;2022-10-31T00:27:05;8.18;;;4.50;;
54171;SDS011;40076;52.354;4.970;2022-10-31T00:29:30;7.40;;;3.65;;
54171;SDS011;40076;52.354;4.970;2022-10-31T00:31:55;8.15;;;4.57;;
54171;SDS011;40076;52.354;4.970;2022-10-31T00:34:21;9.07;;;4.32;;
54171;SDS011;40076;52.354;4.970;2022-10-31T00:36:46;9.57;;;4.10;;
54171;SDS011;40076;52.354;4.970;2022-10-31T00:39:11;9.80;;;4.80;;
54171;SDS011;40076;52.354;4.970;2022-10-31T00:41:36;7.45;;;4.60;;
54171;SDS011;40076;52.354;4.970;2022-10-31T00:44:02;7.47;;;3.97;;
54171;SDS011;40076;52.354;4.970;2022-10-31T00:46:27;7.88;;;4.65;;
54171;SDS011;40076;52.354;4.970;2022-10-31T00:48:53;8.68;;;4.88;;
54171;SDS011;40076;52.354;4.970;2022-10-31T00:51:18;10.15;;;4.68;;
54171;SDS011;40076;52.354;4.970;2022-10-31T00:53:44;9.27;;;4.25;;
54171;SDS011;40076;52.354;4.970;2022-10-31T00:56:09;8.70;;;4.55;;
54171;SDS011;40076;52.354;4.970;2022-10-31T00:58:35;9.45;;;4.18;;
54171;SDS011;40076;52.354;4.970;2022-10-31T01:01:00;7.05;;;4.00;;
54171;SDS011;40076;52.354;4.970;2022-10-31T01:03:27;7.32;;;4.75;;
54171;SDS011;40076;52.354;4.970;2022-10-31T01:08:22;10.18;;;4.32;;
54171;SDS011;40076;52.354;4.970;2022-10-31T01:10:57;7.85;;;4.40;;
54171;SDS011;40076;52.354;4.970;2022-10-31T01:13:26;9.82;;;4.80;;
54171;SDS011;40076;52.354;4.970;2022-10-31T01:15:55;9.77;;;4.80;;
54171;SDS011;40076;52.354;4.970;2022-10-31T01:18:21;9.05;;;4.60;;
54171;SDS011;40076;52.354;4.970;2022-10-31T01:20:47;8.90;;;4.75;;
54171;SDS011;40076;52.354;4.970;2022-10-31T01:23:21;8.85;;;4.43;;
54171;SDS011;40076;52.354;4.970;2022-10-31T01:25:46;6.75;;;4.95;;
54171;SDS011;40076;52.354;4.970;2022-10-31T01:28:11;7.72;;;4.40;;
54171;SDS011;40076;52.354;4.970;2022-10-31T01:30:37;8.88;;;4.55;;
54171;SDS011;40076;52.354;4.970;2022-10-31T01:33:02;8.45;;;4.43;;
54171;SDS011;40076;52.354;4.970;2022-10-31T01:35:28;6.80;;;4.20;;
54171;SDS011;40076;52.354;4.970;2022-10-31T01:37:53;8.98;;;5.05;;
54171;SDS011;40076;52.354;4.970;2022-10-31T01:40:18;7.32;;;4.50;;
54171;SDS011;40076;52.354;4.970;2022-10-31T01:42:43;8.85;;;4.85;;
54171;SDS011;40076;52.354;4.970;2022-10-31T01:45:09;9.55;;;5.10;;
54171;SDS011;40076;52.354;4.970;2022-10-31T01:47:40;8.98;;;5.20;;
54171;SDS011;40076;52.354;4.970;2022-10-31T01:50:12;9.35;;;5.47;;
54171;SDS011;40076;52.354;4.970;2022-10-31T01:52:44;8.82;;;4.88;;
54171;SDS011;40076;52.354;4.970;2022-10-31T01:55:18;10.67;;;4.97;;
54171;SDS011;40076;52.354;4.970;2022-10-31T01:57:49;11.63;;;5.60;;
54171;SDS011;40076;52.354;4.970;2022-10-31T02:00:17;9.75;;;5.15;;
54171;SDS011;40076;52.354;4.970;2022-10-31T02:02:45;11.23;;;5.97;;
54171;SDS011;40076;52.354;4.970;2022-10-31T02:05:15;9.20;;;5.72;;
54171;SDS011;40076;52.354;4.970;2022-10-31T02:07:45;10.45;;;6.30;;
54171;SDS011;40076;52.354;4.970;2022-10-31T02:10:18;8.88;;;5.20;;
54171;SDS011;40076;52.354;4.970;2022-10-31T02:12:46;10.60;;;6.03;;
54171;SDS011;40076;52.354;4.970;2022-10-31T02:15:12;9.60;;;6.10;;
54171;SDS011;40076;52.354;4.970;2022-10-31T02:17:37;9.13;;;6.07;;
54171;SDS011;40076;52.354;4.970;2022-10-31T02:29:04;9.10;;;6.18;;
54171;SDS011;40076;52.354;4.970;2022-10-31T02:31:56;8.82;;;6.35;;
54171;SDS011;40076;52.354;4.970;2022-10-31T02:37:11;12.50;;;7.07;;
54171;SDS011;40076;52.354;4.970;2022-10-31T02:39:56;9.77;;;6.85;;
54171;SDS011;40076;52.354;4.970;2022-10-31T02:45:35;9.02;;;6.50;;
54171;SDS011;40076;52.354;4.970;2022-10-31T02:48:04;10.00;;;6.68;;
54171;SDS011;40076;52.354;4.970;2022-10-31T02:50:35;8.82;;;5.97;;
54171;SDS011;40076;52.354;4.970;2022-10-31T02:53:06;11.25;;;7.22;;
54171;SDS011;40076;52.354;4.970;2022-10-31T02:58:04;9.27;;;6.57;;
54171;SDS011;40076;52.354;4.970;2022-10-31T03:00:38;10.07;;;6.80;;
54171;SDS011;40076;52.354;4.970;2022-10-31T03:03:24;13.30;;;7.53;;
54171;SDS011;40076;52.354;4.970;2022-10-31T03:08:34;11.95;;;8.25;;
54171;SDS011;40076;52.354;4.970;2022-10-31T03:11:07;11.30;;;7.72;;
54171;SDS011;40076;52.354;4.970;2022-10-31T03:16:47;10.73;;;7.93;;
54171;SDS011;40076;52.354;4.970;2022-10-31T03:19:30;11.65;;;7.90;;
54171;SDS011;40076;52.354;4.970;2022-10-31T03:22:15;10.32;;;8.18;;
54171;SDS011;40076;52.354;4.970;2022-10-31T03:24:43;12.85;;;8.73;;
54171;SDS011;40076;52.354;4.970;2022-10-31T03:27:09;12.48;;;8.60;;
54171;SDS011;40076;52.354;4.970;2022-10-31T03:29:38;13.00;;;9.15;;
54171;SDS011;40076;52.354;4.970;2022-10-31T03:32:29;12.35;;;9.18;;
54171;SDS011;40076;52.354;4.970;2022-10-31T03:34:55;14.57;;;10.13;;
54171;SDS011;40076;52.354;4.970;2022-10-31T03:37:24;13.52;;;9.13;;
54171;SDS011;40076;52.354;4.970;2022-10-31T03:39:55;13.32;;;10.48;;
54171;SDS011;40076;52.354;4.970;2022-10-31T03:42:24;14.07;;;9.13;;
54171;SDS011;40076;52.354;4.970;2022-10-31T03:44:53;12.93;;;9.02;;
54171;SDS011;40076;52.354;4.970;2022-10-31T03:49:50;12.73;;;9.88;;
54171;SDS011;40076;52.354;4.970;2022-10-31T03:54:56;13.75;;;11.05;;
54171;SDS011;40076;52.354;4.970;2022-10-31T03:57:32;19.83;;;11.45;;
54171;SDS011;40076;52.354;4.970;2022-10-31T04:00:06;16.17;;;12.20;;
54171;SDS011;40076;52.354;4.970;2022-10-31T04:02:35;17.08;;;12.75;;
54171;SDS011;40076;52.354;4.970;2022-10-31T04:05:05;16.38;;;13.93;;
54171;SDS011;40076;52.354;4.970;2022-10-31T04:07:34;16.50;;;14.57;;
54171;SDS011;40076;52.354;4.970;2022-10-31T04:10:04;18.17;;;14.05;;
54171;SDS011;40076;52.354;4.970;2022-10-31T04:12:34;20.48;;;14.68;;
54171;SDS011;40076;52.354;4.970;2022-10-31T04:15:02;19.05;;;15.75;;
54171;SDS011;40076;52.354;4.970;2022-10-31T04:17:31;21.13;;;15.45;;
54171;SDS011;40076;52.354;4.970;2022-10-31T04:19:59;21.23;;;15.63;;
54171;SDS011;40076;52.354;4.970;2022-10-31T04:22:25;20.30;;;15.18;;
54171;SDS011;40076;52.354;4.970;2022-10-31T04:24:51;23.55;;;16.35;;
54171;SDS011;40076;52.354;4.970;2022-10-31T04:27:16;21.30;;;16.05;;
54171;SDS011;40076;52.354;4.970;2022-10-31T04:29:42;21.30;;;17.80;;
54171;SDS011;40076;52.354;4.970;2022-10-31T04:32:07;20.92;;;17.27;;
54171;SDS011;40076;52.354;4.970;2022-10-31T04:34:32;22.52;;;17.65;;
54171;SDS011;40076;52.354;4.970;2022-10-31T04:36:58;21.42;;;17.15;;
54171;SDS011;40076;52.354;4.970;2022-10-31T04:39:23;21.88;;;18.05;;
54171;SDS011;40076;52.354;4.970;2022-10-31T04:41:48;22.60;;;17.27;;
54171;SDS011;40076;52.354;4.970;2022-10-31T04:44:14;21.13;;;18.00;;
54171;SDS011;40076;52.354;4.970;2022-10-31T04:46:40;19.92;;;16.80;;
54171;SDS011;40076;52.354;4.970;2022-10-31T04:49:05;20.13;;;16.70;;
54171;SDS011;40076;52.354;4.970;2022-10-31T04:51:30;19.92;;;15.68;;
54171;SDS011;40076;52.354;4.970;2022-10-31T04:53:55;19.70;;;15.55;;
54171;SDS011;40076;52.354;4.970;2022-10-31T04:56:21;17.50;;;14.57;;
54171;SDS011;40076;52.354;4.970;2022-10-31T04:58:46;22.10;;;15.75;;
54171;SDS011;40076;52.354;4.970;2022-10-31T05:01:12;26.10;;;17.08;;
54171;SDS011;40076;52.354;4.970;2022-10-31T05:03:37;19.00;;;15.40;;
54171;SDS011;40076;52.354;4.970;2022-10-31T05:06:04;24.10;;;17.30;;
54171;SDS011;40076;52.354;4.970;2022-10-31T05:08:30;24.05;;;17.85;;
54171;SDS011;40076;52.354;4.970;2022-10-31T05:10:58;24.33;;;18.02;;
54171;SDS011;40076;52.354;4.970;2022-10-31T05:13:24;24.85;;;18.23;;
54171;SDS011;40076;52.354;4.970;2022-10-31T05:15:50;22.55;;;18.95;;
54171;SDS011;40076;52.354;4.970;2022-10-31T05:18:15;23.90;;;17.95;;
54171;SDS011;40076;52.354;4.970;2022-10-31T05:20:40;21.17;;;17.70;;
54171;SDS011;40076;52.354;4.970;2022-10-31T05:23:06;23.88;;;17.08;;
54171;SDS011;40076;52.354;4.970;2022-10-31T05:25:31;23.70;;;19.70;;
54171;SDS011;40076;52.354;4.970;2022-10-31T05:27:56;23.38;;;18.83;;
54171;SDS011;40076;52.354;4.970;2022-10-31T05:30:23;26.48;;;18.25;;
54171;SDS011;40076;52.354;4.970;2022-10-31T05:32:53;25.33;;;18.92;;
54171;SDS011;40076;52.354;4.970;2022-10-31T05:35:20;25.98;;;18.95;;
54171;SDS011;40076;52.354;4.970;2022-10-31T05:37:47;21.23;;;17.92;;
54171;SDS011;40076;52.354;4.970;2022-10-31T05:40:13;23.02;;;17.95;;
54171;SDS011;40076;52.354;4.970;2022-10-31T05:42:40;26.35;;;18.40;;
54171;SDS011;40076;52.354;4.970;2022-10-31T05:45:07;24.00;;;17.70;;
54171;SDS011;40076;52.354;4.970;2022-10-31T05:47:38;21.00;;;16.77;;
54171;SDS011;40076;52.354;4.970;2022-10-31T05:50:03;23.30;;;17.80;;
54171;SDS011;40076;52.354;4.970;2022-10-31T05:52:29;22.15;;;17.67;;
54171;SDS011;40076;52.354;4.970;2022-10-31T05:54:55;24.42;;;18.13;;
54171;SDS011;40076;52.354;4.970;2022-10-31T05:57:20;26.45;;;18.88;;
54171;SDS011;40076;52.354;4.970;2022-10-31T05:59:45;27.05;;;19.33;;
54171;SDS011;40076;52.354;4.970;2022-10-31T06:02:11;26.50;;;19.35;;
54171;SDS011;40076;52.354;4.970;2022-10-31T06:04:36;28.55;;;20.38;;
54171;SDS011;40076;52.354;4.970;2022-10-31T06:07:02;26.95;;;19.52;;
54171;SDS011;40076;52.354;4.970;2022-10-31T06:09:27;24.58;;;19.15;;
54171;SDS011;40076;52.354;4.970;2022-10-31T06:11:52;22.88;;;18.25;;
54171;SDS011;40076;52.354;4.970;2022-10-31T06:14:18;23.38;;;19.30;;
54171;SDS011;40076;52.354;4.970;2022-10-31T06:16:43;27.92;;;18.65;;
54171;SDS011;40076;52.354;4.970;2022-10-31T06:19:08;27.90;;;20.92;;
54171;SDS011;40076;52.354;4.970;2022-10-31T06:21:34;25.83;;;18.95;;
54171;SDS011;40076;52.354;4.970;2022-10-31T06:23:59;27.67;;;19.60;;
54171;SDS011;40076;52.354;4.970;2022-10-31T06:26:24;27.35;;;19.45;;
54171;SDS011;40076;52.354;4.970;2022-10-31T06:28:50;24.45;;;18.70;;
54171;SDS011;40076;52.354;4.970;2022-10-31T06:31:15;27.30;;;18.75;;
54171;SDS011;40076;52.354;4.970;2022-10-31T06:33:47;28.35;;;20.17;;
54171;SDS011;40076;52.354;4.970;2022-10-31T06:36:16;24.40;;;19.80;;
54171;SDS011;40076;52.354;4.970;2022-10-31T06:38:47;26.00;;;18.92;;
54171;SDS011;40076;52.354;4.970;2022-10-31T06:41:18;25.50;;;18.83;;
54171;SDS011;40076;52.354;4.970;2022-10-31T06:43:47;26.90;;;20.75;;
54171;SDS011;40076;52.354;4.970;2022-10-31T06:46:12;28.90;;;21.23;;
54171;SDS011;40076;52.354;4.970;2022-10-31T06:48:41;30.23;;;21.77;;
54171;SDS011;40076;52.354;4.970;2022-10-31T06:51:19;31.50;;;23.95;;
54171;SDS011;40076;52.354;4.970;2022-10-31T06:53:48;32.35;;;23.85;;
54171;SDS011;40076;52.354;4.970;2022-10-31T06:56:16;31.52;;;22.02;;
54171;SDS011;40076;52.354;4.970;2022-10-31T06:58:42;36.38;;;24.20;;
54171;SDS011;40076;52.354;4.970;2022-10-31T07:01:07;31.23;;;24.77;;
54171;SDS011;40076;52.354;4.970;2022-10-31T07:03:32;34.55;;;25.40;;
54171;SDS011;40076;52.354;4.970;2022-10-31T07:05:58;37.00;;;25.38;;
54171;SDS011;40076;52.354;4.970;2022-10-31T07:08:23;32.50;;;24.80;;
54171;SDS011;40076;52.354;4.970;2022-10-31T07:10:51;32.85;;;24.00;;
54171;SDS011;40076;52.354;4.970;2022-10-31T07:13:17;38.95;;;26.10;;
54171;SDS011;40076;52.354;4.970;2022-10-31T07:15:43;35.05;;;24.90;;
54171;SDS011;40076;52.354;4.970;2022-10-31T07:18:09;33.65;;;24.73;;
54171;SDS011;40076;52.354;4.970;2022-10-31T07:20:36;35.88;;;25.35;;
54171;SDS011;40076;52.354;4.970;2022-10-31T07:23:02;35.85;;;25.92;;
54171;SDS011;40076;52.354;4.970;2022-10-31T07:25:28;34.58;;;26.38;;
54171;SDS011;40076;52.354;4.970;2022-10-31T07:27:54;35.60;;;25.70;;
54171;SDS011;40076;52.354;4.970;2022-10-31T07:30:20;37.25;;;26.13;;
54171;SDS011;40076;52.354;4.970;2022-10-31T07:32:46;35.58;;;25.83;;
54171;SDS011;40076;52.354;4.970;2022-10-31T07:35:15;39.28;;;26.02;;
54171;SDS011;40076;52.354;4.970;2022-10-31T07:37:42;39.58;;;26.63;;
54171;SDS011;40076;52.354;4.970;2022-10-31T07:40:08;40.97;;;27.30;;
54171;SDS011;40076;52.354;4.970;2022-10-31T07:42:38;35.08;;;26.85;;
54171;SDS011;40076;52.354;4.970;2022-10-31T07:45:06;41.85;;;27.27;;
54171;SDS011;40076;52.354;4.970;2022-10-31T07:47:44;42.80;;;27.25;;
54171;SDS011;40076;52.354;4.970;2022-10-31T07:50:15;37.33;;;24.75;;
54171;SDS011;40076;52.354;4.970;2022-10-31T07:52:45;42.30;;;28.42;;
54171;SDS011;40076;52.354;4.970;2022-10-31T07:55:11;38.53;;;27.92;;
54171;SDS011;40076;52.354;4.970;2022-10-31T07:57:37;42.78;;;27.48;;
54171;SDS011;40076;52.354;4.970;2022-10-31T08:00:05;40.88;;;28.50;;
54171;SDS011;40076;52.354;4.970;2022-10-31T08:02:33;47.35;;;29.40;;
54171;SDS011;40076;52.354;4.970;2022-10-31T08:04:58;43.53;;;27.80;;
54171;SDS011;40076;52.354;4.970;2022-10-31T08:07:25;43.17;;;28.98;;
54171;SDS011;40076;52.354;4.970;2022-10-31T08:09:51;41.80;;;28.38;;
54171;SDS011;40076;52.354;4.970;2022-10-31T08:12:16;45.45;;;31.02;;
54171;SDS011;40076;52.354;4.970;2022-10-31T08:14:42;40.58;;;28.58;;
54171;SDS011;40076;52.354;4.970;2022-10-31T08:17:07;45.58;;;29.60;;
54171;SDS011;40076;52.354;4.970;2022-10-31T08:19:33;46.47;;;31.33;;
54171;SDS011;40076;52.354;4.970;2022-10-31T08:21:58;47.70;;;30.83;;
54171;SDS011;40076;52.354;4.970;2022-10-31T08:24:24;47.55;;;30.42;;
54171;SDS011;40076;52.354;4.970;2022-10-31T08:26:49;51.38;;;31.33;;
54171;SDS011;40076;52.354;4.970;2022-10-31T08:29:15;52.97;;;33.65;;
54171;SDS011;40076;52.354;4.970;2022-10-31T08:31:41;54.38;;;33.15;;
54171;SDS011;40076;52.354;4.970;2022-10-31T08:34:10;63.63;;;35.00;;
54171;SDS011;40076;52.354;4.970;2022-10-31T08:36:35;60.35;;;34.50;;
54171;SDS011;40076;52.354;4.970;2022-10-31T08:39:01;63.92;;;35.95;;
54171;SDS011;40076;52.354;4.970;2022-10-31T08:41:26;69.10;;;36.40;;
54171;SDS011;40076;52.354;4.970;2022-10-31T08:43:52;67.10;;;36.90;;
54171;SDS011;40076;52.354;4.970;2022-10-31T08:46:17;73.60;;;37.88;;
54171;SDS011;40076;52.354;4.970;2022-10-31T08:48:43;71.65;;;39.17;;
54171;SDS011;40076;52.354;4.970;2022-10-31T08:51:08;67.30;;;36.85;;
54171;SDS011;40076;52.354;4.970;2022-10-31T08:53:35;67.70;;;37.88;;
54171;SDS011;40076;52.354;4.970;2022-10-31T08:56:00;64.45;;;35.67;;
54171;SDS011;40076;52.354;4.970;2022-10-31T08:58:26;67.45;;;37.30;;
54171;SDS011;40076;52.354;4.970;2022-10-31T09:00:52;68.03;;;37.17;;
54171;SDS011;40076;52.354;4.970;2022-10-31T09:03:23;57.28;;;33.10;;
54171;SDS011;40076;52.354;4.970;2022-10-31T09:05:50;58.72;;;35.10;;
54171;SDS011;40076;52.354;4.970;2022-10-31T09:08:19;58.78;;;35.03;;
54171;SDS011;40076;52.354;4.970;2022-10-31T09:10:45;56.88;;;34.95;;
54171;SDS011;40076;52.354;4.970;2022-10-31T09:13:14;53.90;;;33.85;;
54171;SDS011;40076;52.354;4.970;2022-10-31T09:15:42;59.30;;;35.65;;
54171;SDS011;40076;52.354;4.970;2022-10-31T09:18:10;60.05;;;35.45;;
54171;SDS011;40076;52.354;4.970;2022-10-31T09:20:37;53.60;;;33.55;;
54171;SDS011;40076;52.354;4.970;2022-10-31T09:23:06;58.47;;;35.53;;
54171;SDS011;40076;52.354;4.970;2022-10-31T09:25:34;54.97;;;32.30;;
54171;SDS011;40076;52.354;4.970;2022-10-31T09:28:01;54.45;;;32.95;;
54171;SDS011;40076;52.354;4.970;2022-10-31T09:30:28;51.92;;;32.15;;
54171;SDS011;40076;52.354;4.970;2022-10-31T09:32:58;45.72;;;30.25;;
54171;SDS011;40076;52.354;4.970;2022-10-31T09:35:25;42.50;;;28.85;;
54171;SDS011;40076;52.354;4.970;2022-10-31T09:37:54;42.97;;;29.08;;
54171;SDS011;40076;52.354;4.970;2022-10-31T09:40:25;45.25;;;29.40;;
54171;SDS011;40076;52.354;4.970;2022-10-31T09:43:19;45.40;;;29.33;;
54171;SDS011;40076;52.354;4.970;2022-10-31T09:51:35;41.42;;;28.50;;
54171;SDS011;40076;52.354;4.970;2022-10-31T09:54:27;44.92;;;28.60;;
54171;SDS011;40076;52.354;4.970;2022-10-31T09:56:59;39.20;;;25.88;;
54171;SDS011;40076;52.354;4.970;2022-10-31T09:59:35;44.38;;;28.92;;
54171;SDS011;40076;52.354;4.970;2022-10-31T10:02:06;46.17;;;28.30;;
54171;SDS011;40076;52.354;4.970;2022-10-31T10:04:43;43.65;;;27.75;;
54171;SDS011;40076;52.354;4.970;2022-10-31T10:07:30;43.42;;;28.25;;
54171;SDS011;40076;52.354;4.970;2022-10-31T10:10:02;47.97;;;30.27;;
54171;SDS011;40076;52.354;4.970;2022-10-31T10:12:57;43.00;;;28.65;;
54171;SDS011;40076;52.354;4.970;2022-10-31T10:18:16;49.00;;;31.27;;
54171;SDS011;40076;52.354;4.970;2022-10-31T10:26:10;47.15;;;30.38;;
54171;SDS011;40076;52.354;4.970;2022-10-31T10:28:41;50.50;;;31.98;;
54171;SDS011;40076;52.354;4.970;2022-10-31T10:31:12;52.60;;;31.20;;
54171;SDS011;40076;52.354;4.970;2022-10-31T10:34:25;58.70;;;31.55;;
54171;SDS011;40076;52.354;4.970;2022-10-31T10:36:43;50.03;;;29.55;;
54171;SDS011;40076;52.354;4.970;2022-10-31T10:39:14;49.40;;;29.40;;
54171;SDS011;40076;52.354;4.970;2022-10-31T10:41:48;48.88;;;29.27;;
54171;SDS011;40076;52.354;4.970;2022-10-31T10:44:33;43.67;;;27.67;;
54171;SDS011;40076;52.354;4.970;2022-10-31T10:47:22;49.92;;;28.23;;
54171;SDS011;40076;52.354;4.970;2022-10-31T10:50:26;44.63;;;27.30;;
54171;SDS011;40076;52.354;4.970;2022-10-31T10:53:02;37.75;;;24.63;;
54171;SDS011;40076;52.354;4.970;2022-10-31T10:56:07;36.85;;;21.88;;
54171;SDS011;40076;52.354;4.970;2022-10-31T10:58:40;35.22;;;20.13;;
54171;SDS011;40076;52.354;4.970;2022-10-31T11:01:13;27.23;;;17.67;;
54171;SDS011;40076;52.354;4.970;2022-10-31T11:03:40;26.65;;;16.75;;
54171;SDS011;40076;52.354;4.970;2022-10-31T11:06:15;25.88;;;12.98;;
54171;SDS011;40076;52.354;4.970;2022-10-31T11:08:42;22.38;;;13.10;;
54171;SDS011;40076;52.354;4.970;2022-10-31T11:11:10;19.98;;;11.60;;
54171;SDS011;40076;52.354;4.970;2022-10-31T11:13:50;19.27;;;10.80;;
54171;SDS011;40076;52.354;4.970;2022-10-31T11:21:36;17.48;;;11.88;;
54171;SDS011;40076;52.354;4.970;2022-10-31T11:24:23;19.77;;;11.30;;
54171;SDS011;40076;52.354;4.970;2022-10-31T11:26:51;20.25;;;11.02;;
54171;SDS011;40076;52.354;4.970;2022-10-31T11:29:20;16.38;;;10.13;;
54171;SDS011;40076;52.354;4.970;2022-10-31T11:31:53;16.30;;;10.65;;
54171;SDS011;40076;52.354;4.970;2022-10-31T11:34:35;18.48;;;10.27;;
54171;SDS011;40076;52.354;4.970;2022-10-31T11:37:11;18.08;;;10.57;;
54171;SDS011;40076;52.354;4.970;2022-10-31T11:39:41;16.63;;;10.88;;
54171;SDS011;40076;52.354;4.970;2022-10-31T11:42:09;15.32;;;10.50;;
54171;SDS011;40076;52.354;4.970;2022-10-31T11:44:34;22.08;;;11.68;;
54171;SDS011;40076;52.354;4.970;2022-10-31T11:47:01;17.35;;;9.40;;
54171;SDS011;40076;52.354;4.970;2022-10-31T11:49:30;19.50;;;10.07;;
54171;SDS011;40076;52.354;4.970;2022-10-31T11:52:21;19.63;;;11.82;;
54171;SDS011;40076;52.354;4.970;2022-10-31T11:54:57;15.45;;;9.85;;
54171;SDS011;40076;52.354;4.970;2022-10-31T11:59:56;16.02;;;10.57;;
54171;SDS011;40076;52.354;4.970;2022-10-31T12:02:23;18.40;;;10.10;;
54171;SDS011;40076;52.354;4.970;2022-10-31T12:04:55;16.33;;;10.35;;
54171;SDS011;40076;52.354;4.970;2022-10-31T12:07:21;16.80;;;10.18;;
54171;SDS011;40076;52.354;4.970;2022-10-31T12:09:47;20.45;;;11.27;;
54171;SDS011;40076;52.354;4.970;2022-10-31T12:21:07;23.95;;;16.17;;
54171;SDS011;40076;52.354;4.970;2022-10-31T12:31:40;32.92;;;18.35;;
54171;SDS011;40076;52.354;4.970;2022-10-31T12:34:49;32.95;;;20.23;;
54171;SDS011;40076;52.354;4.970;2022-10-31T12:37:37;33.60;;;20.77;;
54171;SDS011;40076;52.354;4.970;2022-10-31T12:43:14;32.75;;;21.33;;
54171;SDS011;40076;52.354;4.970;2022-10-31T12:51:40;34.05;;;19.38;;
54171;SDS011;40076;52.354;4.970;2022-10-31T12:59:45;33.13;;;21.08;;
54171;SDS011;40076;52.354;4.970;2022-10-31T13:02:26;35.45;;;22.65;;
54171;SDS011;40076;52.354;4.970;2022-10-31T13:04:56;38.60;;;23.13;;
54171;SDS011;40076;52.354;4.970;2022-10-31T13:07:29;35.72;;;22.27;;
54171;SDS011;40076;52.354;4.970;2022-10-31T13:12:39;36.95;;;22.17;;
54171;SDS011;40076;52.354;4.970;2022-10-31T13:15:16;35.70;;;21.98;;
54171;SDS011;40076;52.354;4.970;2022-10-31T13:17:47;35.85;;;21.35;;
54171;SDS011;40076;52.354;4.970;2022-10-31T13:23:26;37.45;;;22.33;;
54171;SDS011;40076;52.354;4.970;2022-10-31T13:25:53;34.90;;;21.73;;
54171;SDS011;40076;52.354;4.970;2022-10-31T13:31:15;30.65;;;19.27;;
54171;SDS011;40076;52.354;4.970;2022-10-31T13:33:43;27.42;;;19.52;;
54171;SDS011;40076;52.354;4.970;2022-10-31T13:39:25;32.58;;;19.92;;
54171;SDS011;40076;52.354;4.970;2022-10-31T13:42:02;34.00;;;20.63;;
54171;SDS011;40076;52.354;4.970;2022-10-31T13:44:35;28.52;;;20.30;;
54171;SDS011;40076;52.354;4.970;2022-10-31T13:47:04;36.22;;;20.95;;
54171;SDS011;40076;52.354;4.970;2022-10-31T13:49:47;30.38;;;19.90;;
54171;SDS011;40076;52.354;4.970;2022-10-31T13:52:14;33.50;;;20.33;;
54171;SDS011;40076;52.354;4.970;2022-10-31T13:54:45;33.42;;;21.13;;
54171;SDS011;40076;52.354;4.970;2022-10-31T13:57:19;37.35;;;21.30;;
54171;SDS011;40076;52.354;4.970;2022-10-31T13:59:55;35.03;;;21.08;;
54171;SDS011;40076;52.354;4.970;2022-10-31T14:02:31;36.53;;;21.50;;
54171;SDS011;40076;52.354;4.970;2022-10-31T14:05:03;35.47;;;22.40;;
54171;SDS011;40076;52.354;4.970;2022-10-31T14:07:31;41.10;;;21.70;;
54171;SDS011;40076;52.354;4.970;2022-10-31T14:12:36;36.20;;;22.33;;
54171;SDS011;40076;52.354;4.970;2022-10-31T14:15:20;47.13;;;23.92;;
54171;SDS011;40076;52.354;4.970;2022-10-31T14:20:31;35.67;;;21.75;;
54171;SDS011;40076;52.354;4.970;2022-10-31T14:23:10;40.53;;;21.73;;
54171;SDS011;40076;52.354;4.970;2022-10-31T14:28:48;35.67;;;22.90;;
54171;SDS011;40076;52.354;4.970;2022-10-31T14:34:26;42.08;;;23.85;;
54171;SDS011;40076;52.354;4.970;2022-10-31T14:37:01;42.97;;;23.80;;
54171;SDS011;40076;52.354;4.970;2022-10-31T14:50:24;50.80;;;24.95;;
54171;SDS011;40076;52.354;4.970;2022-10-31T14:52:59;36.10;;;21.98;;
54171;SDS011;40076;52.354;4.970;2022-10-31T14:55:26;43.40;;;24.17;;
54171;SDS011;40076;52.354;4.970;2022-10-31T14:57:53;38.50;;;23.35;;
54171;SDS011;40076;52.354;4.970;2022-10-31T15:00:22;45.92;;;24.52;;
54171;SDS011;40076;52.354;4.970;2022-10-31T15:05:41;43.42;;;25.42;;
54171;SDS011;40076;52.354;4.970;2022-10-31T15:11:10;48.35;;;23.20;;
54171;SDS011;40076;52.354;4.970;2022-10-31T15:13:44;38.17;;;22.45;;
54171;SDS011;40076;52.354;4.970;2022-10-31T15:16:11;42.63;;;23.33;;
54171;SDS011;40076;52.354;4.970;2022-10-31T15:18:59;41.17;;;22.98;;
54171;SDS011;40076;52.354;4.970;2022-10-31T15:21:28;46.10;;;23.55;;
54171;SDS011;40076;52.354;4.970;2022-10-31T15:23:55;40.78;;;22.08;;
54171;SDS011;40076;52.354;4.970;2022-10-31T15:26:24;40.38;;;21.85;;
54171;SDS011;40076;52.354;4.970;2022-10-31T15:29:11;40.65;;;23.35;;
54171;SDS011;40076;52.354;4.970;2022-10-31T15:31:54;40.28;;;22.38;;
54171;SDS011;40076;52.354;4.970;2022-10-31T15:34:22;36.58;;;22.23;;
54171;SDS011;40076;52.354;4.970;2022-10-31T15:36:49;38.78;;;22.50;;
54171;SDS011;40076;52.354;4.970;2022-10-31T15:39:15;37.10;;;21.55;;
54171;SDS011;40076;52.354;4.970;2022-10-31T15:41:52;44.17;;;24.02;;
54171;SDS011;40076;52.354;4.970;2022-10-31T15:44:26;44.83;;;24.50;;
54171;SDS011;40076;52.354;4.970;2022-10-31T15:46:59;39.60;;;22.55;;
54171;SDS011;40076;52.354;4.970;2022-10-31T15:49:28;39.88;;;21.75;;
54171;SDS011;40076;52.354;4.970;2022-10-31T15:51:57;45.20;;;23.48;;
54171;SDS011;40076;52.354;4.970;2022-10-31T15:56:55;51.97;;;25.80;;
54171;SDS011;40076;52.354;4.970;2022-10-31T15:59:22;46.88;;;23.08;;
54171;SDS011;40076;52.354;4.970;2022-10-31T16:02:07;45.08;;;23.25;;
54171;SDS011;40076;52.354;4.970;2022-10-31T16:04:35;40.05;;;23.23;;
54171;SDS011;40076;52.354;4.970;2022-10-31T16:07:14;46.47;;;24.45;;
54171;SDS011;40076;52.354;4.970;2022-10-31T16:12:23;41.95;;;24.38;;
54171;SDS011;40076;52.354;4.970;2022-10-31T16:14:53;39.53;;;22.42;;
54171;SDS011;40076;52.354;4.970;2022-10-31T16:17:20;40.33;;;22.23;;
54171;SDS011;40076;52.354;4.970;2022-10-31T16:19:52;39.40;;;22.85;;
54171;SDS011;40076;52.354;4.970;2022-10-31T16:22:23;41.80;;;22.88;;
54171;SDS011;40076;52.354;4.970;2022-10-31T16:24:59;43.10;;;22.85;;
54171;SDS011;40076;52.354;4.970;2022-10-31T16:27:31;45.30;;;24.38;;
54171;SDS011;40076;52.354;4.970;2022-10-31T16:29:59;41.72;;;23.58;;
54171;SDS011;40076;52.354;4.970;2022-10-31T16:37:32;35.15;;;21.92;;
54171;SDS011;40076;52.354;4.970;2022-10-31T16:39:58;42.08;;;23.75;;
54171;SDS011;40076;52.354;4.970;2022-10-31T16:42:23;44.15;;;24.10;;
54171;SDS011;40076;52.354;4.970;2022-10-31T16:44:49;42.10;;;23.23;;
54171;SDS011;40076;52.354;4.970;2022-10-31T16:47:15;41.88;;;24.45;;
54171;SDS011;40076;52.354;4.970;2022-10-31T16:49:42;42.85;;;23.60;;
54171;SDS011;40076;52.354;4.970;2022-10-31T16:52:11;42.88;;;23.83;;
54171;SDS011;40076;52.354;4.970;2022-10-31T16:54:36;45.10;;;23.80;;